Tuesday, August 21, 2018, 9:53 AM EDT
Back to Local

KMVL, Morrisville Stowe State Airport

Location: Morrisville, VT, United States Lat: 44.533
Local Time: 9:53 AM EDT (13:53 GMT) Lon: -72.617
Time Zone: US/Eastern Elev: 731 ft

Show me the last for .
Show Decoded

2018-08-21 08:54 METAR KMVL 211254Z AUTO 00000KT 10SM CLR 18/16 A3013 RMK AO2 SLP205 T01780156 =
2018-08-21 07:54 METAR KMVL 211154Z AUTO 00000KT 10SM BKN050 14/14 A3015 RMK AO2 SLP211 T01390139
                 10144 20094 55000 =
2018-08-21 06:54 METAR KMVL 211054Z AUTO 00000KT 7SM FEW001 SCT050 12/12 A3015 RMK AO2 SLP210
                 T01170117 =
2018-08-21 06:41 METAR KMVL 211041Z AUTO 00000KT 5SM BR SCT001 SCT050 11/11 A3015 RMK AO2
                 T01110111 =
2018-08-21 06:29 METAR KMVL 211029Z AUTO 21003KT 2 1/2SM BR FEW003 SCT050 11/11 A3016 RMK AO2
                 T01110111 =
2018-08-21 05:54 METAR KMVL 210954Z AUTO 00000KT 10SM FEW050 11/11 A3015 RMK AO2 SLP210 T01060106
                 =
2018-08-21 04:54 METAR KMVL 210854Z AUTO 00000KT 10SM FEW002 11/11 A3015 RMK AO2 SLP210 T01060106
                 55004 =
2018-08-21 04:42 METAR KMVL 210842Z AUTO 00000KT 5SM BR FEW001 11/11 A3015 RMK AO2 T01060106 =
2018-08-21 03:54 METAR KMVL 210754Z AUTO 19003KT 8SM CLR 10/10 A3015 RMK AO2 SLP209 T01000100 =
2018-08-21 02:54 METAR KMVL 210654Z AUTO 00000KT 10SM CLR 11/11 A3015 RMK AO2 SLP209 T01110111 =
2018-08-21 00:54 METAR KMVL 210454Z AUTO 00000KT 10SM CLR 12/12 A3017 RMK AO2 SLP216 T01220122
                 402670106 TSNO =
2018-08-20 23:54 METAR KMVL 210354Z AUTO 21003KT 10SM CLR 13/13 A3017 RMK AO2 SLP214 T01330133 =
2018-08-20 22:54 METAR KMVL 210254Z AUTO 21003KT 10SM CLR 14/14 A3017 RMK AO2 SLP216 T01390139
                 51006 =
2018-08-20 21:54 METAR KMVL 210154Z AUTO 00000KT 10SM CLR 14/14 A3017 RMK AO2 SLP216 T01440144 =
2018-08-20 20:54 METAR KMVL 210054Z AUTO 00000KT 10SM CLR 16/15 A3016 RMK AO2 SLP213 T01560150 =
2018-08-20 19:54 METAR KMVL 202354Z AUTO 00000KT 10SM FEW060 18/16 A3015 RMK AO2 SLP210 T01830156
                 10267 20183 53005 =
2018-08-20 18:54 METAR KMVL 202254Z AUTO 21003KT 10SM CLR 22/15 A3013 RMK AO2 SLP203 T02220150 =
2018-08-20 17:54 METAR KMVL 202154Z AUTO 16006KT 10SM FEW060 25/13 A3013 RMK AO2 SLP203 T02500133
                 =
2018-08-20 16:54 METAR KMVL 202054Z AUTO 17005KT 10SM SCT060 25/14 A3013 RMK AO2 SLP204 T02500139
                 56010 =
2018-08-20 15:54 METAR KMVL 201954Z AUTO 18006KT 10SM FEW060 25/14 A3014 RMK AO2 SLP206 T02500139
                 =
2018-08-20 14:54 METAR KMVL 201854Z AUTO VRB06KT 10SM CLR 26/14 A3015 RMK AO2 SLP210 T02560144 =
2018-08-20 13:54 METAR KMVL 201754Z AUTO VRB03KT 10SM FEW050 26/14 A3016 RMK AO2 SLP213 T02560139
                 10261 20150 56015 =
2018-08-20 12:54 METAR KMVL 201654Z AUTO 00000KT 10SM OVC042 25/15 A3017 RMK AO2 SLP217 T02500150
                 =
2018-08-20 11:54 METAR KMVL 201554Z AUTO 00000KT 10SM FEW060 25/16 A3020 RMK AO2 SLP225 T02500156
                 =
2018-08-20 10:54 METAR KMVL 201454Z AUTO 15004KT 10SM FEW060 22/14 A3021 RMK AO2 SLP230 T02220144
                 58001 =
2018-08-20 09:54 METAR KMVL 201354Z AUTO 19006KT 10SM CLR 21/16 A3022 RMK AO2 SLP233 T02110156 =

Support USWX by starting your Amazon purchase here.